METAR
LICR 202150Z 08003KT 9999 FEW050 17/11 Q1025
TAF